sensor_id;sensor_type;location;lat;lon;timestamp;P1;durP1;ratioP1;P2;durP2;ratioP2
12840;SDS011;6487;48.626;12.486;2023-01-30T00:01:21;19.20;;;14.10;;
12840;SDS011;6487;48.626;12.486;2023-01-30T00:03:52;19.73;;;14.23;;
12840;SDS011;6487;48.626;12.486;2023-01-30T00:06:20;20.73;;;14.33;;
12840;SDS011;6487;48.626;12.486;2023-01-30T00:08:49;19.17;;;14.23;;
12840;SDS011;6487;48.626;12.486;2023-01-30T00:11:19;17.90;;;13.73;;
12840;SDS011;6487;48.626;12.486;2023-01-30T00:13:49;18.00;;;13.30;;
12840;SDS011;6487;48.626;12.486;2023-01-30T00:16:18;19.00;;;14.17;;
12840;SDS011;6487;48.626;12.486;2023-01-30T00:18:46;20.50;;;14.33;;
12840;SDS011;6487;48.626;12.486;2023-01-30T00:21:14;19.87;;;14.13;;
12840;SDS011;6487;48.626;12.486;2023-01-30T00:23:43;18.30;;;13.57;;
12840;SDS011;6487;48.626;12.486;2023-01-30T00:26:12;20.10;;;14.37;;
12840;SDS011;6487;48.626;12.486;2023-01-30T00:28:40;19.30;;;14.03;;
12840;SDS011;6487;48.626;12.486;2023-01-30T00:31:10;19.50;;;13.33;;
12840;SDS011;6487;48.626;12.486;2023-01-30T00:33:38;17.80;;;13.50;;
12840;SDS011;6487;48.626;12.486;2023-01-30T00:36:07;16.40;;;12.33;;
12840;SDS011;6487;48.626;12.486;2023-01-30T00:38:37;17.87;;;13.10;;
12840;SDS011;6487;48.626;12.486;2023-01-30T00:41:05;16.43;;;12.53;;
12840;SDS011;6487;48.626;12.486;2023-01-30T00:43:36;19.17;;;12.50;;
12840;SDS011;6487;48.626;12.486;2023-01-30T00:46:23;18.10;;;12.40;;
12840;SDS011;6487;48.626;12.486;2023-01-30T00:49:13;18.93;;;13.03;;
12840;SDS011;6487;48.626;12.486;2023-01-30T00:51:41;17.03;;;13.20;;
12840;SDS011;6487;48.626;12.486;2023-01-30T00:54:09;17.17;;;12.93;;
12840;SDS011;6487;48.626;12.486;2023-01-30T00:56:38;16.90;;;13.00;;
12840;SDS011;6487;48.626;12.486;2023-01-30T00:59:06;18.43;;;13.37;;
12840;SDS011;6487;48.626;12.486;2023-01-30T01:01:36;15.50;;;12.00;;
12840;SDS011;6487;48.626;12.486;2023-01-30T01:04:04;19.03;;;13.27;;
12840;SDS011;6487;48.626;12.486;2023-01-30T01:06:34;19.97;;;13.50;;
12840;SDS011;6487;48.626;12.486;2023-01-30T01:09:02;17.33;;;13.07;;
12840;SDS011;6487;48.626;12.486;2023-01-30T01:11:31;19.10;;;13.53;;
12840;SDS011;6487;48.626;12.486;2023-01-30T01:14:01;18.50;;;14.00;;
12840;SDS011;6487;48.626;12.486;2023-01-30T01:16:32;19.10;;;14.13;;
12840;SDS011;6487;48.626;12.486;2023-01-30T01:19:03;18.90;;;13.70;;
12840;SDS011;6487;48.626;12.486;2023-01-30T01:21:31;18.37;;;13.47;;
12840;SDS011;6487;48.626;12.486;2023-01-30T01:24:00;20.37;;;14.03;;
12840;SDS011;6487;48.626;12.486;2023-01-30T01:26:28;19.10;;;13.63;;
12840;SDS011;6487;48.626;12.486;2023-01-30T01:28:57;21.23;;;13.97;;
12840;SDS011;6487;48.626;12.486;2023-01-30T01:31:25;18.47;;;13.50;;
12840;SDS011;6487;48.626;12.486;2023-01-30T01:33:54;18.20;;;13.07;;
12840;SDS011;6487;48.626;12.486;2023-01-30T01:36:24;19.20;;;14.40;;
12840;SDS011;6487;48.626;12.486;2023-01-30T01:39:12;16.70;;;12.83;;
12840;SDS011;6487;48.626;12.486;2023-01-30T01:41:40;17.50;;;12.73;;
12840;SDS011;6487;48.626;12.486;2023-01-30T01:44:08;19.17;;;13.77;;
12840;SDS011;6487;48.626;12.486;2023-01-30T01:46:39;20.50;;;13.90;;
12840;SDS011;6487;48.626;12.486;2023-01-30T01:49:12;20.93;;;14.20;;
12840;SDS011;6487;48.626;12.486;2023-01-30T01:51:47;18.67;;;13.00;;
12840;SDS011;6487;48.626;12.486;2023-01-30T01:54:23;17.63;;;13.03;;
12840;SDS011;6487;48.626;12.486;2023-01-30T01:56:57;19.40;;;13.47;;
12840;SDS011;6487;48.626;12.486;2023-01-30T01:59:31;21.57;;;14.90;;
12840;SDS011;6487;48.626;12.486;2023-01-30T02:02:05;18.70;;;12.87;;
12840;SDS011;6487;48.626;12.486;2023-01-30T02:04:37;19.87;;;13.47;;
12840;SDS011;6487;48.626;12.486;2023-01-30T02:07:32;18.33;;;12.70;;
12840;SDS011;6487;48.626;12.486;2023-01-30T02:10:05;18.00;;;12.53;;
12840;SDS011;6487;48.626;12.486;2023-01-30T02:12:36;18.83;;;12.90;;
12840;SDS011;6487;48.626;12.486;2023-01-30T02:15:06;19.07;;;13.53;;
12840;SDS011;6487;48.626;12.486;2023-01-30T02:17:35;17.37;;;12.97;;
12840;SDS011;6487;48.626;12.486;2023-01-30T02:20:05;18.70;;;14.47;;
12840;SDS011;6487;48.626;12.486;2023-01-30T02:22:58;20.23;;;13.80;;
12840;SDS011;6487;48.626;12.486;2023-01-30T02:32:48;18.40;;;12.93;;
12840;SDS011;6487;48.626;12.486;2023-01-30T02:35:28;19.03;;;13.97;;
12840;SDS011;6487;48.626;12.486;2023-01-30T02:38:11;17.43;;;12.90;;
12840;SDS011;6487;48.626;12.486;2023-01-30T02:40:57;18.70;;;13.67;;
12840;SDS011;6487;48.626;12.486;2023-01-30T02:43:38;19.67;;;13.70;;
12840;SDS011;6487;48.626;12.486;2023-01-30T02:46:14;19.33;;;12.63;;
12840;SDS011;6487;48.626;12.486;2023-01-30T02:48:50;18.00;;;13.20;;
12840;SDS011;6487;48.626;12.486;2023-01-30T02:51:25;20.13;;;13.30;;
12840;SDS011;6487;48.626;12.486;2023-01-30T02:53:57;17.10;;;12.90;;
12840;SDS011;6487;48.626;12.486;2023-01-30T02:56:26;21.20;;;13.77;;
12840;SDS011;6487;48.626;12.486;2023-01-30T02:58:55;19.37;;;13.87;;
12840;SDS011;6487;48.626;12.486;2023-01-30T03:01:31;19.53;;;12.83;;
12840;SDS011;6487;48.626;12.486;2023-01-30T03:04:31;20.17;;;13.27;;
12840;SDS011;6487;48.626;12.486;2023-01-30T03:07:22;21.43;;;13.83;;
12840;SDS011;6487;48.626;12.486;2023-01-30T03:10:00;18.87;;;13.20;;
12840;SDS011;6487;48.626;12.486;2023-01-30T03:12:37;21.83;;;12.87;;
12840;SDS011;6487;48.626;12.486;2023-01-30T03:15:16;20.57;;;13.73;;
12840;SDS011;6487;48.626;12.486;2023-01-30T03:17:52;18.10;;;13.20;;
12840;SDS011;6487;48.626;12.486;2023-01-30T03:20:24;20.87;;;14.13;;
12840;SDS011;6487;48.626;12.486;2023-01-30T03:22:52;18.20;;;12.87;;
12840;SDS011;6487;48.626;12.486;2023-01-30T03:25:22;19.43;;;13.00;;
12840;SDS011;6487;48.626;12.486;2023-01-30T03:27:53;18.77;;;13.27;;
12840;SDS011;6487;48.626;12.486;2023-01-30T03:30:22;19.50;;;13.13;;
12840;SDS011;6487;48.626;12.486;2023-01-30T03:32:52;19.10;;;13.40;;
12840;SDS011;6487;48.626;12.486;2023-01-30T03:35:21;17.67;;;13.30;;
12840;SDS011;6487;48.626;12.486;2023-01-30T03:37:50;19.97;;;14.10;;
12840;SDS011;6487;48.626;12.486;2023-01-30T03:40:19;21.43;;;13.73;;
12840;SDS011;6487;48.626;12.486;2023-01-30T03:42:47;20.50;;;13.90;;
12840;SDS011;6487;48.626;12.486;2023-01-30T03:45:16;23.77;;;14.73;;
12840;SDS011;6487;48.626;12.486;2023-01-30T03:47:44;20.70;;;14.60;;
12840;SDS011;6487;48.626;12.486;2023-01-30T03:50:13;20.20;;;13.27;;
12840;SDS011;6487;48.626;12.486;2023-01-30T03:52:41;20.07;;;14.43;;
12840;SDS011;6487;48.626;12.486;2023-01-30T03:55:11;23.00;;;14.57;;
12840;SDS011;6487;48.626;12.486;2023-01-30T03:57:40;20.73;;;14.97;;
12840;SDS011;6487;48.626;12.486;2023-01-30T04:00:08;19.13;;;13.87;;
12840;SDS011;6487;48.626;12.486;2023-01-30T04:02:38;19.03;;;13.70;;
12840;SDS011;6487;48.626;12.486;2023-01-30T04:05:06;20.73;;;13.87;;
12840;SDS011;6487;48.626;12.486;2023-01-30T04:07:34;24.33;;;14.97;;
12840;SDS011;6487;48.626;12.486;2023-01-30T04:10:03;22.50;;;14.83;;
12840;SDS011;6487;48.626;12.486;2023-01-30T04:12:34;21.70;;;14.33;;
12840;SDS011;6487;48.626;12.486;2023-01-30T04:15:02;21.70;;;13.83;;
12840;SDS011;6487;48.626;12.486;2023-01-30T04:17:31;21.27;;;14.93;;
12840;SDS011;6487;48.626;12.486;2023-01-30T04:20:00;20.23;;;14.00;;
12840;SDS011;6487;48.626;12.486;2023-01-30T04:22:28;21.57;;;14.73;;
12840;SDS011;6487;48.626;12.486;2023-01-30T04:24:56;21.00;;;14.70;;
12840;SDS011;6487;48.626;12.486;2023-01-30T04:27:24;20.67;;;14.27;;
12840;SDS011;6487;48.626;12.486;2023-01-30T04:29:54;23.50;;;15.83;;
12840;SDS011;6487;48.626;12.486;2023-01-30T04:32:24;20.80;;;14.97;;
12840;SDS011;6487;48.626;12.486;2023-01-30T04:34:52;21.77;;;14.23;;
12840;SDS011;6487;48.626;12.486;2023-01-30T04:37:21;22.67;;;15.40;;
12840;SDS011;6487;48.626;12.486;2023-01-30T04:39:49;23.97;;;15.30;;
12840;SDS011;6487;48.626;12.486;2023-01-30T04:42:17;20.37;;;15.07;;
12840;SDS011;6487;48.626;12.486;2023-01-30T04:44:46;24.33;;;16.07;;
12840;SDS011;6487;48.626;12.486;2023-01-30T04:47:15;21.53;;;14.77;;
12840;SDS011;6487;48.626;12.486;2023-01-30T04:49:44;23.27;;;15.60;;
12840;SDS011;6487;48.626;12.486;2023-01-30T04:52:12;19.57;;;12.97;;
12840;SDS011;6487;48.626;12.486;2023-01-30T04:54:40;23.23;;;15.90;;
12840;SDS011;6487;48.626;12.486;2023-01-30T04:57:09;22.30;;;14.63;;
12840;SDS011;6487;48.626;12.486;2023-01-30T04:59:37;22.90;;;15.17;;
12840;SDS011;6487;48.626;12.486;2023-01-30T05:02:06;21.57;;;15.10;;
12840;SDS011;6487;48.626;12.486;2023-01-30T05:04:35;24.20;;;15.47;;
12840;SDS011;6487;48.626;12.486;2023-01-30T05:07:04;21.37;;;14.00;;
12840;SDS011;6487;48.626;12.486;2023-01-30T05:09:32;20.50;;;14.07;;
12840;SDS011;6487;48.626;12.486;2023-01-30T05:12:00;21.73;;;15.70;;
12840;SDS011;6487;48.626;12.486;2023-01-30T05:14:28;22.60;;;15.23;;
12840;SDS011;6487;48.626;12.486;2023-01-30T05:16:57;23.27;;;15.20;;
12840;SDS011;6487;48.626;12.486;2023-01-30T05:19:25;23.40;;;15.03;;
12840;SDS011;6487;48.626;12.486;2023-01-30T05:21:55;23.33;;;14.97;;
12840;SDS011;6487;48.626;12.486;2023-01-30T05:24:23;21.10;;;14.80;;
12840;SDS011;6487;48.626;12.486;2023-01-30T05:26:51;22.07;;;14.90;;
12840;SDS011;6487;48.626;12.486;2023-01-30T05:29:19;21.83;;;14.40;;
12840;SDS011;6487;48.626;12.486;2023-01-30T05:31:48;22.93;;;14.70;;
12840;SDS011;6487;48.626;12.486;2023-01-30T05:34:16;23.50;;;15.80;;
12840;SDS011;6487;48.626;12.486;2023-01-30T05:36:45;23.63;;;15.40;;
12840;SDS011;6487;48.626;12.486;2023-01-30T05:39:15;24.70;;;16.00;;
12840;SDS011;6487;48.626;12.486;2023-01-30T05:41:44;23.73;;;15.77;;
12840;SDS011;6487;48.626;12.486;2023-01-30T05:44:12;24.23;;;15.93;;
12840;SDS011;6487;48.626;12.486;2023-01-30T05:46:40;26.17;;;16.40;;
12840;SDS011;6487;48.626;12.486;2023-01-30T05:49:09;22.43;;;15.70;;
12840;SDS011;6487;48.626;12.486;2023-01-30T05:51:37;22.57;;;15.17;;
12840;SDS011;6487;48.626;12.486;2023-01-30T05:54:05;23.87;;;15.83;;
12840;SDS011;6487;48.626;12.486;2023-01-30T05:56:35;21.13;;;14.77;;
12840;SDS011;6487;48.626;12.486;2023-01-30T05:59:04;25.77;;;16.47;;
12840;SDS011;6487;48.626;12.486;2023-01-30T06:01:33;26.27;;;15.87;;
12840;SDS011;6487;48.626;12.486;2023-01-30T06:04:01;23.80;;;15.90;;
12840;SDS011;6487;48.626;12.486;2023-01-30T06:06:29;24.17;;;15.40;;
12840;SDS011;6487;48.626;12.486;2023-01-30T06:08:58;25.53;;;15.13;;
12840;SDS011;6487;48.626;12.486;2023-01-30T06:11:26;22.93;;;16.27;;
12840;SDS011;6487;48.626;12.486;2023-01-30T06:13:56;25.03;;;16.27;;
12840;SDS011;6487;48.626;12.486;2023-01-30T06:16:24;24.00;;;15.77;;
12840;SDS011;6487;48.626;12.486;2023-01-30T06:18:52;25.57;;;15.47;;
12840;SDS011;6487;48.626;12.486;2023-01-30T06:21:20;25.30;;;16.93;;
12840;SDS011;6487;48.626;12.486;2023-01-30T06:23:49;23.50;;;14.83;;
12840;SDS011;6487;48.626;12.486;2023-01-30T06:26:17;22.60;;;15.17;;
12840;SDS011;6487;48.626;12.486;2023-01-30T06:28:45;26.83;;;17.37;;
12840;SDS011;6487;48.626;12.486;2023-01-30T06:31:16;30.43;;;18.37;;
12840;SDS011;6487;48.626;12.486;2023-01-30T06:33:44;23.57;;;16.50;;
12840;SDS011;6487;48.626;12.486;2023-01-30T06:36:14;22.20;;;15.07;;
12840;SDS011;6487;48.626;12.486;2023-01-30T06:38:42;21.80;;;15.27;;
12840;SDS011;6487;48.626;12.486;2023-01-30T06:41:11;25.37;;;14.57;;
12840;SDS011;6487;48.626;12.486;2023-01-30T06:43:40;23.30;;;13.93;;
12840;SDS011;6487;48.626;12.486;2023-01-30T06:46:08;21.40;;;14.50;;
12840;SDS011;6487;48.626;12.486;2023-01-30T06:48:38;27.87;;;16.37;;
12840;SDS011;6487;48.626;12.486;2023-01-30T06:51:06;25.13;;;14.73;;
12840;SDS011;6487;48.626;12.486;2023-01-30T06:53:34;19.63;;;14.63;;
12840;SDS011;6487;48.626;12.486;2023-01-30T06:56:03;23.63;;;15.43;;
12840;SDS011;6487;48.626;12.486;2023-01-30T06:58:32;21.53;;;14.77;;
12840;SDS011;6487;48.626;12.486;2023-01-30T07:01:00;21.47;;;15.00;;
12840;SDS011;6487;48.626;12.486;2023-01-30T07:03:28;22.17;;;14.53;;
12840;SDS011;6487;48.626;12.486;2023-01-30T07:05:58;22.67;;;15.10;;
12840;SDS011;6487;48.626;12.486;2023-01-30T07:08:26;22.00;;;14.57;;
12840;SDS011;6487;48.626;12.486;2023-01-30T07:10:54;21.47;;;14.70;;
12840;SDS011;6487;48.626;12.486;2023-01-30T07:13:23;18.83;;;14.03;;
12840;SDS011;6487;48.626;12.486;2023-01-30T07:15:51;22.83;;;16.13;;
12840;SDS011;6487;48.626;12.486;2023-01-30T07:18:19;23.10;;;15.67;;
12840;SDS011;6487;48.626;12.486;2023-01-30T07:20:48;22.20;;;14.60;;
12840;SDS011;6487;48.626;12.486;2023-01-30T07:23:18;22.67;;;14.10;;
12840;SDS011;6487;48.626;12.486;2023-01-30T07:25:46;23.73;;;16.43;;
12840;SDS011;6487;48.626;12.486;2023-01-30T07:28:14;21.47;;;14.70;;
12840;SDS011;6487;48.626;12.486;2023-01-30T07:30:42;24.57;;;15.73;;
12840;SDS011;6487;48.626;12.486;2023-01-30T07:33:11;24.33;;;16.27;;
12840;SDS011;6487;48.626;12.486;2023-01-30T07:35:39;22.23;;;15.40;;
12840;SDS011;6487;48.626;12.486;2023-01-30T07:38:07;23.60;;;15.37;;
12840;SDS011;6487;48.626;12.486;2023-01-30T07:40:37;23.20;;;15.43;;
12840;SDS011;6487;48.626;12.486;2023-01-30T07:43:06;22.23;;;15.03;;
12840;SDS011;6487;48.626;12.486;2023-01-30T07:45:38;20.60;;;14.27;;
12840;SDS011;6487;48.626;12.486;2023-01-30T07:48:09;18.90;;;13.67;;
12840;SDS011;6487;48.626;12.486;2023-01-30T07:50:40;18.97;;;13.40;;
12840;SDS011;6487;48.626;12.486;2023-01-30T07:53:09;20.70;;;14.20;;
12840;SDS011;6487;48.626;12.486;2023-01-30T07:55:41;21.27;;;13.13;;
12840;SDS011;6487;48.626;12.486;2023-01-30T07:58:10;18.87;;;13.47;;
12840;SDS011;6487;48.626;12.486;2023-01-30T08:00:40;21.80;;;14.73;;
12840;SDS011;6487;48.626;12.486;2023-01-30T08:03:10;18.57;;;12.93;;
12840;SDS011;6487;48.626;12.486;2023-01-30T08:05:40;20.17;;;13.13;;
12840;SDS011;6487;48.626;12.486;2023-01-30T08:08:09;20.23;;;14.10;;
12840;SDS011;6487;48.626;12.486;2023-01-30T08:10:37;22.57;;;14.80;;
12840;SDS011;6487;48.626;12.486;2023-01-30T08:13:07;19.60;;;13.90;;
12840;SDS011;6487;48.626;12.486;2023-01-30T08:15:35;20.53;;;13.10;;
12840;SDS011;6487;48.626;12.486;2023-01-30T08:18:03;19.60;;;13.23;;
12840;SDS011;6487;48.626;12.486;2023-01-30T08:20:33;19.40;;;13.37;;
12840;SDS011;6487;48.626;12.486;2023-01-30T08:23:02;19.27;;;13.20;;
12840;SDS011;6487;48.626;12.486;2023-01-30T08:25:30;18.40;;;13.53;;
12840;SDS011;6487;48.626;12.486;2023-01-30T08:28:00;22.43;;;14.20;;
12840;SDS011;6487;48.626;12.486;2023-01-30T08:30:31;20.07;;;12.33;;
12840;SDS011;6487;48.626;12.486;2023-01-30T08:32:59;18.43;;;13.23;;
12840;SDS011;6487;48.626;12.486;2023-01-30T08:35:27;18.03;;;12.73;;
12840;SDS011;6487;48.626;12.486;2023-01-30T08:37:56;19.73;;;12.70;;
12840;SDS011;6487;48.626;12.486;2023-01-30T08:40:25;18.73;;;12.90;;
12840;SDS011;6487;48.626;12.486;2023-01-30T08:42:54;14.90;;;11.73;;
12840;SDS011;6487;48.626;12.486;2023-01-30T08:45:22;20.30;;;12.37;;
12840;SDS011;6487;48.626;12.486;2023-01-30T08:47:52;17.37;;;11.90;;
12840;SDS011;6487;48.626;12.486;2023-01-30T08:50:20;18.47;;;11.93;;
12840;SDS011;6487;48.626;12.486;2023-01-30T08:52:48;17.53;;;12.10;;
12840;SDS011;6487;48.626;12.486;2023-01-30T08:55:16;18.77;;;12.23;;
12840;SDS011;6487;48.626;12.486;2023-01-30T08:57:46;18.07;;;11.17;;
12840;SDS011;6487;48.626;12.486;2023-01-30T09:00:15;19.30;;;12.77;;
12840;SDS011;6487;48.626;12.486;2023-01-30T09:02:44;18.93;;;12.70;;
12840;SDS011;6487;48.626;12.486;2023-01-30T09:05:14;16.40;;;12.03;;
12840;SDS011;6487;48.626;12.486;2023-01-30T09:07:43;17.53;;;12.10;;
12840;SDS011;6487;48.626;12.486;2023-01-30T09:10:11;17.47;;;11.80;;
12840;SDS011;6487;48.626;12.486;2023-01-30T09:12:39;17.40;;;11.07;;
12840;SDS011;6487;48.626;12.486;2023-01-30T09:15:08;17.60;;;11.37;;
12840;SDS011;6487;48.626;12.486;2023-01-30T09:17:37;16.00;;;11.57;;
12840;SDS011;6487;48.626;12.486;2023-01-30T09:20:06;17.37;;;12.03;;
12840;SDS011;6487;48.626;12.486;2023-01-30T09:22:38;18.17;;;12.00;;
12840;SDS011;6487;48.626;12.486;2023-01-30T09:25:07;16.40;;;11.40;;
12840;SDS011;6487;48.626;12.486;2023-01-30T09:27:36;16.23;;;11.13;;
12840;SDS011;6487;48.626;12.486;2023-01-30T09:30:04;16.67;;;11.20;;
12840;SDS011;6487;48.626;12.486;2023-01-30T09:32:34;15.57;;;10.63;;
12840;SDS011;6487;48.626;12.486;2023-01-30T09:35:03;16.07;;;11.07;;
12840;SDS011;6487;48.626;12.486;2023-01-30T09:37:33;15.77;;;11.20;;
12840;SDS011;6487;48.626;12.486;2023-01-30T09:40:04;15.40;;;11.57;;
12840;SDS011;6487;48.626;12.486;2023-01-30T09:42:37;15.77;;;10.93;;
12840;SDS011;6487;48.626;12.486;2023-01-30T09:45:41;16.00;;;10.37;;
12840;SDS011;6487;48.626;12.486;2023-01-30T09:48:20;15.07;;;11.37;;
12840;SDS011;6487;48.626;12.486;2023-01-30T09:51:01;13.77;;;10.10;;
12840;SDS011;6487;48.626;12.486;2023-01-30T09:54:11;14.40;;;10.60;;
12840;SDS011;6487;48.626;12.486;2023-01-30T09:56:55;14.47;;;8.63;;
12840;SDS011;6487;48.626;12.486;2023-01-30T09:59:48;16.77;;;10.60;;
12840;SDS011;6487;48.626;12.486;2023-01-30T10:02:35;12.87;;;8.60;;
12840;SDS011;6487;48.626;12.486;2023-01-30T10:05:11;12.33;;;9.23;;
12840;SDS011;6487;48.626;12.486;2023-01-30T10:07:58;13.60;;;9.20;;
12840;SDS011;6487;48.626;12.486;2023-01-30T10:10:45;14.13;;;9.53;;
12840;SDS011;6487;48.626;12.486;2023-01-30T10:13:42;12.93;;;8.97;;
12840;SDS011;6487;48.626;12.486;2023-01-30T10:16:23;12.07;;;8.37;;
12840;SDS011;6487;48.626;12.486;2023-01-30T10:19:06;12.20;;;8.67;;
12840;SDS011;6487;48.626;12.486;2023-01-30T10:22:04;11.17;;;8.57;;
12840;SDS011;6487;48.626;12.486;2023-01-30T10:24:47;12.10;;;8.17;;
12840;SDS011;6487;48.626;12.486;2023-01-30T10:27:24;13.30;;;8.93;;
12840;SDS011;6487;48.626;12.486;2023-01-30T10:29:58;10.60;;;8.23;;
12840;SDS011;6487;48.626;12.486;2023-01-30T10:32:30;12.43;;;8.23;;
12840;SDS011;6487;48.626;12.486;2023-01-30T10:35:08;10.20;;;7.90;;
12840;SDS011;6487;48.626;12.486;2023-01-30T10:37:45;11.70;;;8.20;;
12840;SDS011;6487;48.626;12.486;2023-01-30T10:40:25;11.63;;;7.67;;
12840;SDS011;6487;48.626;12.486;2023-01-30T10:43:01;11.27;;;8.00;;
12840;SDS011;6487;48.626;12.486;2023-01-30T10:45:38;10.27;;;7.83;;
12840;SDS011;6487;48.626;12.486;2023-01-30T10:48:18;11.67;;;7.70;;
12840;SDS011;6487;48.626;12.486;2023-01-30T10:51:16;10.00;;;7.17;;
12840;SDS011;6487;48.626;12.486;2023-01-30T10:53:55;7.50;;;6.40;;
12840;SDS011;6487;48.626;12.486;2023-01-30T10:56:32;8.70;;;7.40;;
12840;SDS011;6487;48.626;12.486;2023-01-30T10:59:19;8.43;;;7.33;;
12840;SDS011;6487;48.626;12.486;2023-01-30T11:01:54;7.43;;;6.17;;
12840;SDS011;6487;48.626;12.486;2023-01-30T11:04:31;7.77;;;6.47;;
12840;SDS011;6487;48.626;12.486;2023-01-30T11:07:08;9.50;;;7.07;;
12840;SDS011;6487;48.626;12.486;2023-01-30T11:09:40;9.13;;;7.47;;
12840;SDS011;6487;48.626;12.486;2023-01-30T11:12:10;8.53;;;6.70;;
12840;SDS011;6487;48.626;12.486;2023-01-30T11:14:55;8.07;;;6.10;;
12840;SDS011;6487;48.626;12.486;2023-01-30T11:17:31;8.37;;;6.97;;
12840;SDS011;6487;48.626;12.486;2023-01-30T11:20:04;8.90;;;7.23;;
12840;SDS011;6487;48.626;12.486;2023-01-30T11:22:47;7.87;;;6.80;;
12840;SDS011;6487;48.626;12.486;2023-01-30T11:25:18;9.47;;;6.90;;
12840;SDS011;6487;48.626;12.486;2023-01-30T11:27:53;9.33;;;7.73;;
12840;SDS011;6487;48.626;12.486;2023-01-30T11:30:25;7.60;;;6.70;;
12840;SDS011;6487;48.626;12.486;2023-01-30T11:33:05;9.77;;;7.70;;
12840;SDS011;6487;48.626;12.486;2023-01-30T11:35:41;9.83;;;7.87;;
12840;SDS011;6487;48.626;12.486;2023-01-30T11:38:20;8.27;;;7.07;;
12840;SDS011;6487;48.626;12.486;2023-01-30T11:41:00;12.67;;;8.10;;
12840;SDS011;6487;48.626;12.486;2023-01-30T11:43:32;8.53;;;7.37;;
12840;SDS011;6487;48.626;12.486;2023-01-30T11:46:04;9.83;;;7.23;;
12840;SDS011;6487;48.626;12.486;2023-01-30T11:48:40;8.57;;;7.70;;
12840;SDS011;6487;48.626;12.486;2023-01-30T11:51:35;9.13;;;7.33;;
12840;SDS011;6487;48.626;12.486;2023-01-30T11:54:05;7.70;;;6.90;;
12840;SDS011;6487;48.626;12.486;2023-01-30T11:56:40;7.90;;;6.77;;
12840;SDS011;6487;48.626;12.486;2023-01-30T11:59:18;8.03;;;7.23;;
12840;SDS011;6487;48.626;12.486;2023-01-30T12:01:51;10.20;;;8.17;;
12840;SDS011;6487;48.626;12.486;2023-01-30T12:04:31;11.33;;;8.03;;
12840;SDS011;6487;48.626;12.486;2023-01-30T12:07:04;10.23;;;8.27;;
12840;SDS011;6487;48.626;12.486;2023-01-30T12:09:35;9.53;;;8.23;;
12840;SDS011;6487;48.626;12.486;2023-01-30T12:14:56;11.00;;;7.40;;
12840;SDS011;6487;48.626;12.486;2023-01-30T12:17:34;10.37;;;7.93;;
12840;SDS011;6487;48.626;12.486;2023-01-30T12:20:13;13.70;;;8.97;;
12840;SDS011;6487;48.626;12.486;2023-01-30T12:22:51;10.80;;;8.17;;
12840;SDS011;6487;48.626;12.486;2023-01-30T12:25:33;8.63;;;6.70;;
12840;SDS011;6487;48.626;12.486;2023-01-30T12:28:10;14.53;;;8.80;;
12840;SDS011;6487;48.626;12.486;2023-01-30T12:30:48;11.40;;;8.40;;
12840;SDS011;6487;48.626;12.486;2023-01-30T12:33:21;12.00;;;8.27;;
12840;SDS011;6487;48.626;12.486;2023-01-30T12:36:01;12.90;;;9.20;;
12840;SDS011;6487;48.626;12.486;2023-01-30T12:41:47;9.40;;;6.80;;
12840;SDS011;6487;48.626;12.486;2023-01-30T12:44:51;9.33;;;7.50;;
12840;SDS011;6487;48.626;12.486;2023-01-30T12:47:33;9.70;;;7.60;;
12840;SDS011;6487;48.626;12.486;2023-01-30T12:50:29;7.90;;;5.80;;
12840;SDS011;6487;48.626;12.486;2023-01-30T12:53:11;7.03;;;5.63;;
12840;SDS011;6487;48.626;12.486;2023-01-30T12:59:10;11.90;;;6.00;;
12840;SDS011;6487;48.626;12.486;2023-01-30T13:01:51;8.60;;;6.03;;
12840;SDS011;6487;48.626;12.486;2023-01-30T13:04:43;8.20;;;5.63;;
12840;SDS011;6487;48.626;12.486;2023-01-30T13:07:31;6.73;;;5.37;;
12840;SDS011;6487;48.626;12.486;2023-01-30T13:10:11;6.87;;;5.47;;
12840;SDS011;6487;48.626;12.486;2023-01-30T13:12:48;10.20;;;6.53;;
12840;SDS011;6487;48.626;12.486;2023-01-30T13:15:27;8.30;;;7.27;;
12840;SDS011;6487;48.626;12.486;2023-01-30T13:18:05;8.83;;;7.33;;
12840;SDS011;6487;48.626;12.486;2023-01-30T13:20:47;6.67;;;5.97;;
12840;SDS011;6487;48.626;12.486;2023-01-30T13:23:21;6.23;;;5.20;;
12840;SDS011;6487;48.626;12.486;2023-01-30T13:26:03;6.00;;;5.00;;
12840;SDS011;6487;48.626;12.486;2023-01-30T13:28:35;7.10;;;5.17;;
12840;SDS011;6487;48.626;12.486;2023-01-30T13:31:07;7.83;;;5.23;;
12840;SDS011;6487;48.626;12.486;2023-01-30T13:33:39;8.03;;;6.07;;
12840;SDS011;6487;48.626;12.486;2023-01-30T13:36:12;7.37;;;5.57;;
12840;SDS011;6487;48.626;12.486;2023-01-30T13:38:46;6.80;;;5.47;;
12840;SDS011;6487;48.626;12.486;2023-01-30T13:41:25;8.00;;;6.13;;
12840;SDS011;6487;48.626;12.486;2023-01-30T13:43:59;6.40;;;5.33;;
12840;SDS011;6487;48.626;12.486;2023-01-30T13:46:33;9.13;;;5.93;;
12840;SDS011;6487;48.626;12.486;2023-01-30T13:49:06;8.17;;;5.93;;
12840;SDS011;6487;48.626;12.486;2023-01-30T13:51:45;13.70;;;6.20;;
12840;SDS011;6487;48.626;12.486;2023-01-30T13:54:21;9.03;;;6.37;;
12840;SDS011;6487;48.626;12.486;2023-01-30T13:57:07;6.93;;;5.53;;
12840;SDS011;6487;48.626;12.486;2023-01-30T13:59:54;9.07;;;6.23;;
12840;SDS011;6487;48.626;12.486;2023-01-30T14:05:58;7.23;;;5.80;;
12840;SDS011;6487;48.626;12.486;2023-01-30T14:08:32;8.93;;;6.57;;
12840;SDS011;6487;48.626;12.486;2023-01-30T14:14:02;8.43;;;6.70;;
12840;SDS011;6487;48.626;12.486;2023-01-30T14:16:46;9.67;;;6.33;;
12840;SDS011;6487;48.626;12.486;2023-01-30T14:19:18;7.27;;;5.70;;
12840;SDS011;6487;48.626;12.486;2023-01-30T14:21:56;10.03;;;7.00;;
12840;SDS011;6487;48.626;12.486;2023-01-30T14:24:26;7.83;;;5.97;;
12840;SDS011;6487;48.626;12.486;2023-01-30T14:27:00;10.87;;;7.40;;
12840;SDS011;6487;48.626;12.486;2023-01-30T14:29:53;9.87;;;6.53;;
12840;SDS011;6487;48.626;12.486;2023-01-30T14:32:32;10.67;;;7.10;;
12840;SDS011;6487;48.626;12.486;2023-01-30T14:35:23;9.67;;;7.17;;
12840;SDS011;6487;48.626;12.486;2023-01-30T14:38:03;9.40;;;7.00;;
12840;SDS011;6487;48.626;12.486;2023-01-30T14:40:46;9.97;;;7.47;;
12840;SDS011;6487;48.626;12.486;2023-01-30T14:43:33;8.70;;;7.00;;
12840;SDS011;6487;48.626;12.486;2023-01-30T14:46:06;10.10;;;6.80;;
12840;SDS011;6487;48.626;12.486;2023-01-30T14:52:01;8.33;;;6.90;;
12840;SDS011;6487;48.626;12.486;2023-01-30T14:54:32;8.07;;;6.67;;
12840;SDS011;6487;48.626;12.486;2023-01-30T14:57:18;9.43;;;6.77;;
12840;SDS011;6487;48.626;12.486;2023-01-30T14:59:51;9.00;;;6.87;;
12840;SDS011;6487;48.626;12.486;2023-01-30T15:02:46;7.67;;;6.00;;
12840;SDS011;6487;48.626;12.486;2023-01-30T15:05:18;8.77;;;6.70;;
12840;SDS011;6487;48.626;12.486;2023-01-30T15:07:55;8.07;;;6.20;;
12840;SDS011;6487;48.626;12.486;2023-01-30T15:10:38;9.80;;;6.70;;
12840;SDS011;6487;48.626;12.486;2023-01-30T15:13:31;8.37;;;6.33;;
12840;SDS011;6487;48.626;12.486;2023-01-30T15:19:38;9.60;;;6.20;;
12840;SDS011;6487;48.626;12.486;2023-01-30T15:22:23;9.90;;;6.87;;
12840;SDS011;6487;48.626;12.486;2023-01-30T15:25:15;9.20;;;6.20;;
12840;SDS011;6487;48.626;12.486;2023-01-30T15:28:11;13.57;;;8.27;;
12840;SDS011;6487;48.626;12.486;2023-01-30T15:30:58;11.27;;;9.07;;
12840;SDS011;6487;48.626;12.486;2023-01-30T15:33:41;14.20;;;9.53;;
12840;SDS011;6487;48.626;12.486;2023-01-30T15:39:05;10.37;;;8.60;;